sensor_id;sensor_type;location;lat;lon;timestamp;P1;durP1;ratioP1;P2;durP2;ratioP2
9801;SDS011;4940;50.900;4.672;2023-05-16T00:00:11;11.70;;;3.58;;
9801;SDS011;4940;50.900;4.672;2023-05-16T00:02:39;8.82;;;2.83;;
9801;SDS011;4940;50.900;4.672;2023-05-16T00:05:06;9.45;;;2.85;;
9801;SDS011;4940;50.900;4.672;2023-05-16T00:07:35;14.15;;;3.00;;
9801;SDS011;4940;50.900;4.672;2023-05-16T00:10:02;11.90;;;3.10;;
9801;SDS011;4940;50.900;4.672;2023-05-16T00:12:30;15.13;;;3.88;;
9801;SDS011;4940;50.900;4.672;2023-05-16T00:14:58;14.48;;;3.85;;
9801;SDS011;4940;50.900;4.672;2023-05-16T00:17:26;13.80;;;3.97;;
9801;SDS011;4940;50.900;4.672;2023-05-16T00:19:53;11.32;;;3.72;;
9801;SDS011;4940;50.900;4.672;2023-05-16T00:22:23;7.55;;;4.30;;
9801;SDS011;4940;50.900;4.672;2023-05-16T00:24:51;9.57;;;4.10;;
9801;SDS011;4940;50.900;4.672;2023-05-16T00:27:18;12.20;;;4.47;;
9801;SDS011;4940;50.900;4.672;2023-05-16T00:29:46;8.27;;;4.10;;
9801;SDS011;4940;50.900;4.672;2023-05-16T00:32:15;11.73;;;4.72;;
9801;SDS011;4940;50.900;4.672;2023-05-16T00:34:43;12.30;;;4.43;;
9801;SDS011;4940;50.900;4.672;2023-05-16T00:37:10;7.85;;;4.40;;
9801;SDS011;4940;50.900;4.672;2023-05-16T00:39:37;12.35;;;4.90;;
9801;SDS011;4940;50.900;4.672;2023-05-16T00:42:05;8.38;;;4.88;;
9801;SDS011;4940;50.900;4.672;2023-05-16T00:44:33;11.65;;;5.15;;
9801;SDS011;4940;50.900;4.672;2023-05-16T00:47:00;10.00;;;6.05;;
9801;SDS011;4940;50.900;4.672;2023-05-16T00:49:29;12.23;;;5.50;;
9801;SDS011;4940;50.900;4.672;2023-05-16T00:51:57;12.80;;;6.50;;
9801;SDS011;4940;50.900;4.672;2023-05-16T00:54:25;17.92;;;6.82;;
9801;SDS011;4940;50.900;4.672;2023-05-16T00:56:53;9.43;;;6.78;;
9801;SDS011;4940;50.900;4.672;2023-05-16T00:59:21;8.27;;;6.65;;
9801;SDS011;4940;50.900;4.672;2023-05-16T01:01:48;11.30;;;7.32;;
9801;SDS011;4940;50.900;4.672;2023-05-16T01:04:17;15.60;;;8.45;;
9801;SDS011;4940;50.900;4.672;2023-05-16T01:06:46;11.55;;;7.35;;
9801;SDS011;4940;50.900;4.672;2023-05-16T01:09:13;15.27;;;8.30;;
9801;SDS011;4940;50.900;4.672;2023-05-16T01:11:42;9.20;;;8.05;;
9801;SDS011;4940;50.900;4.672;2023-05-16T01:14:16;16.25;;;8.98;;
9801;SDS011;4940;50.900;4.672;2023-05-16T01:16:52;12.80;;;8.52;;
9801;SDS011;4940;50.900;4.672;2023-05-16T01:19:28;12.90;;;8.52;;
9801;SDS011;4940;50.900;4.672;2023-05-16T01:22:14;14.90;;;9.48;;
9801;SDS011;4940;50.900;4.672;2023-05-16T01:24:49;10.77;;;9.80;;
9801;SDS011;4940;50.900;4.672;2023-05-16T01:27:29;10.23;;;9.15;;
9801;SDS011;4940;50.900;4.672;2023-05-16T01:29:58;12.80;;;11.50;;
9801;SDS011;4940;50.900;4.672;2023-05-16T01:32:26;14.15;;;10.45;;
9801;SDS011;4940;50.900;4.672;2023-05-16T01:34:53;12.85;;;10.32;;
9801;SDS011;4940;50.900;4.672;2023-05-16T01:37:23;9.82;;;8.98;;
9801;SDS011;4940;50.900;4.672;2023-05-16T01:40:01;9.77;;;8.70;;
9801;SDS011;4940;50.900;4.672;2023-05-16T01:42:36;11.90;;;10.23;;
9801;SDS011;4940;50.900;4.672;2023-05-16T01:45:08;16.08;;;10.45;;
9801;SDS011;4940;50.900;4.672;2023-05-16T01:47:40;11.82;;;10.48;;
9801;SDS011;4940;50.900;4.672;2023-05-16T01:50:12;13.48;;;10.63;;
9801;SDS011;4940;50.900;4.672;2023-05-16T01:52:44;12.65;;;11.23;;
9801;SDS011;4940;50.900;4.672;2023-05-16T01:55:26;13.63;;;10.77;;
9801;SDS011;4940;50.900;4.672;2023-05-16T01:58:03;17.10;;;15.27;;
9801;SDS011;4940;50.900;4.672;2023-05-16T02:00:32;14.50;;;13.02;;
9801;SDS011;4940;50.900;4.672;2023-05-16T02:03:00;18.90;;;14.35;;
9801;SDS011;4940;50.900;4.672;2023-05-16T02:05:27;16.52;;;15.25;;
9801;SDS011;4940;50.900;4.672;2023-05-16T02:07:55;18.30;;;16.42;;
9801;SDS011;4940;50.900;4.672;2023-05-16T02:10:22;16.02;;;14.65;;
9801;SDS011;4940;50.900;4.672;2023-05-16T02:12:50;17.15;;;15.40;;
9801;SDS011;4940;50.900;4.672;2023-05-16T02:15:18;18.42;;;17.08;;
9801;SDS011;4940;50.900;4.672;2023-05-16T02:17:46;18.30;;;16.98;;
9801;SDS011;4940;50.900;4.672;2023-05-16T02:20:13;19.02;;;17.50;;
9801;SDS011;4940;50.900;4.672;2023-05-16T02:22:40;21.48;;;19.70;;
9801;SDS011;4940;50.900;4.672;2023-05-16T02:25:09;21.23;;;19.55;;
9801;SDS011;4940;50.900;4.672;2023-05-16T02:27:36;20.70;;;17.30;;
9801;SDS011;4940;50.900;4.672;2023-05-16T02:30:04;20.58;;;18.58;;
9801;SDS011;4940;50.900;4.672;2023-05-16T02:32:34;18.50;;;16.75;;
9801;SDS011;4940;50.900;4.672;2023-05-16T02:35:01;20.58;;;18.27;;
9801;SDS011;4940;50.900;4.672;2023-05-16T02:37:28;19.73;;;17.88;;
9801;SDS011;4940;50.900;4.672;2023-05-16T02:39:56;20.02;;;18.25;;
9801;SDS011;4940;50.900;4.672;2023-05-16T02:42:24;21.58;;;20.08;;
9801;SDS011;4940;50.900;4.672;2023-05-16T02:44:52;20.98;;;19.25;;
9801;SDS011;4940;50.900;4.672;2023-05-16T02:47:19;20.27;;;18.85;;
9801;SDS011;4940;50.900;4.672;2023-05-16T02:49:48;20.90;;;19.25;;
9801;SDS011;4940;50.900;4.672;2023-05-16T02:52:16;18.85;;;17.20;;
9801;SDS011;4940;50.900;4.672;2023-05-16T02:54:44;17.63;;;15.98;;
9801;SDS011;4940;50.900;4.672;2023-05-16T02:57:11;15.65;;;14.40;;
9801;SDS011;4940;50.900;4.672;2023-05-16T02:59:38;17.05;;;15.77;;
9801;SDS011;4940;50.900;4.672;2023-05-16T03:02:06;18.00;;;16.17;;
9801;SDS011;4940;50.900;4.672;2023-05-16T03:04:33;17.73;;;16.08;;
9801;SDS011;4940;50.900;4.672;2023-05-16T03:07:02;19.27;;;17.60;;
9801;SDS011;4940;50.900;4.672;2023-05-16T03:09:30;19.13;;;17.73;;
9801;SDS011;4940;50.900;4.672;2023-05-16T03:11:57;18.17;;;16.63;;
9801;SDS011;4940;50.900;4.672;2023-05-16T03:14:24;20.52;;;19.10;;
9801;SDS011;4940;50.900;4.672;2023-05-16T03:16:52;18.92;;;17.30;;
9801;SDS011;4940;50.900;4.672;2023-05-16T03:19:19;22.33;;;20.15;;
9801;SDS011;4940;50.900;4.672;2023-05-16T03:21:47;21.23;;;19.17;;
9801;SDS011;4940;50.900;4.672;2023-05-16T03:24:15;20.95;;;19.45;;
9801;SDS011;4940;50.900;4.672;2023-05-16T03:26:43;22.15;;;19.88;;
9801;SDS011;4940;50.900;4.672;2023-05-16T03:29:10;20.02;;;18.55;;
9801;SDS011;4940;50.900;4.672;2023-05-16T03:31:37;22.88;;;20.65;;
9801;SDS011;4940;50.900;4.672;2023-05-16T03:34:06;22.80;;;20.52;;
9801;SDS011;4940;50.900;4.672;2023-05-16T03:36:34;21.60;;;19.92;;
9801;SDS011;4940;50.900;4.672;2023-05-16T03:39:01;22.48;;;20.30;;
9801;SDS011;4940;50.900;4.672;2023-05-16T03:41:29;22.75;;;20.48;;
9801;SDS011;4940;50.900;4.672;2023-05-16T03:43:57;23.45;;;21.55;;
9801;SDS011;4940;50.900;4.672;2023-05-16T03:46:24;23.15;;;21.23;;
9801;SDS011;4940;50.900;4.672;2023-05-16T03:48:52;21.60;;;19.73;;
9801;SDS011;4940;50.900;4.672;2023-05-16T03:51:19;22.20;;;20.05;;
9801;SDS011;4940;50.900;4.672;2023-05-16T03:53:47;22.45;;;20.27;;
9801;SDS011;4940;50.900;4.672;2023-05-16T03:56:15;22.65;;;20.58;;
9801;SDS011;4940;50.900;4.672;2023-05-16T03:58:43;23.50;;;21.27;;
9801;SDS011;4940;50.900;4.672;2023-05-16T04:01:11;22.23;;;20.00;;
9801;SDS011;4940;50.900;4.672;2023-05-16T04:03:38;21.30;;;19.65;;
9801;SDS011;4940;50.900;4.672;2023-05-16T04:06:06;21.70;;;20.27;;
9801;SDS011;4940;50.900;4.672;2023-05-16T04:08:33;21.30;;;19.40;;
9801;SDS011;4940;50.900;4.672;2023-05-16T04:11:01;22.10;;;19.88;;
9801;SDS011;4940;50.900;4.672;2023-05-16T04:13:28;23.02;;;20.92;;
9801;SDS011;4940;50.900;4.672;2023-05-16T04:15:57;23.27;;;21.45;;
9801;SDS011;4940;50.900;4.672;2023-05-16T04:18:24;24.05;;;22.08;;
9801;SDS011;4940;50.900;4.672;2023-05-16T04:20:51;23.58;;;21.73;;
9801;SDS011;4940;50.900;4.672;2023-05-16T04:23:19;26.92;;;24.92;;
9801;SDS011;4940;50.900;4.672;2023-05-16T04:25:46;26.58;;;24.55;;
9801;SDS011;4940;50.900;4.672;2023-05-16T04:28:14;25.42;;;23.27;;
9801;SDS011;4940;50.900;4.672;2023-05-16T04:30:42;25.92;;;23.65;;
9801;SDS011;4940;50.900;4.672;2023-05-16T04:33:11;25.15;;;23.30;;
9801;SDS011;4940;50.900;4.672;2023-05-16T04:35:38;26.27;;;24.23;;
9801;SDS011;4940;50.900;4.672;2023-05-16T04:38:06;26.85;;;24.70;;
9801;SDS011;4940;50.900;4.672;2023-05-16T04:40:33;26.08;;;24.10;;
9801;SDS011;4940;50.900;4.672;2023-05-16T04:43:01;28.20;;;25.67;;
9801;SDS011;4940;50.900;4.672;2023-05-16T04:45:28;28.02;;;25.77;;
9801;SDS011;4940;50.900;4.672;2023-05-16T04:47:55;27.08;;;25.05;;
9801;SDS011;4940;50.900;4.672;2023-05-16T04:50:24;28.23;;;25.85;;
9801;SDS011;4940;50.900;4.672;2023-05-16T04:52:52;27.40;;;24.90;;
9801;SDS011;4940;50.900;4.672;2023-05-16T04:55:19;26.88;;;24.40;;
9801;SDS011;4940;50.900;4.672;2023-05-16T04:57:47;25.70;;;24.08;;
9801;SDS011;4940;50.900;4.672;2023-05-16T05:00:14;26.65;;;24.48;;
9801;SDS011;4940;50.900;4.672;2023-05-16T05:02:43;25.77;;;23.83;;
9801;SDS011;4940;50.900;4.672;2023-05-16T05:05:10;26.02;;;23.73;;
9801;SDS011;4940;50.900;4.672;2023-05-16T05:07:39;24.20;;;21.85;;
9801;SDS011;4940;50.900;4.672;2023-05-16T05:10:07;22.83;;;20.98;;
9801;SDS011;4940;50.900;4.672;2023-05-16T05:12:36;20.30;;;18.92;;
9801;SDS011;4940;50.900;4.672;2023-05-16T05:15:03;21.70;;;19.92;;
9801;SDS011;4940;50.900;4.672;2023-05-16T05:17:31;20.95;;;18.98;;
9801;SDS011;4940;50.900;4.672;2023-05-16T05:19:59;19.35;;;17.95;;
9801;SDS011;4940;50.900;4.672;2023-05-16T05:22:26;20.63;;;18.23;;
9801;SDS011;4940;50.900;4.672;2023-05-16T05:24:55;19.75;;;17.80;;
9801;SDS011;4940;50.900;4.672;2023-05-16T05:27:22;22.27;;;20.40;;
9801;SDS011;4940;50.900;4.672;2023-05-16T05:29:51;28.60;;;26.45;;
9801;SDS011;4940;50.900;4.672;2023-05-16T05:32:18;32.65;;;30.25;;
9801;SDS011;4940;50.900;4.672;2023-05-16T05:34:46;28.90;;;26.85;;
9801;SDS011;4940;50.900;4.672;2023-05-16T05:37:13;9.68;;;7.95;;
9801;SDS011;4940;50.900;4.672;2023-05-16T05:39:41;9.40;;;2.38;;
9801;SDS011;4940;50.900;4.672;2023-05-16T05:42:10;8.00;;;1.58;;
9801;SDS011;4940;50.900;4.672;2023-05-16T05:44:38;3.33;;;1.58;;
9801;SDS011;4940;50.900;4.672;2023-05-16T05:47:05;5.82;;;1.50;;
9801;SDS011;4940;50.900;4.672;2023-05-16T05:49:33;7.32;;;1.80;;
9801;SDS011;4940;50.900;4.672;2023-05-16T05:52:01;2.75;;;1.25;;
9801;SDS011;4940;50.900;4.672;2023-05-16T05:54:28;8.05;;;1.88;;
9801;SDS011;4940;50.900;4.672;2023-05-16T05:56:56;7.22;;;1.75;;
9801;SDS011;4940;50.900;4.672;2023-05-16T05:59:25;7.68;;;1.70;;
9801;SDS011;4940;50.900;4.672;2023-05-16T06:01:52;6.65;;;1.90;;
9801;SDS011;4940;50.900;4.672;2023-05-16T06:04:20;8.63;;;1.95;;
9801;SDS011;4940;50.900;4.672;2023-05-16T06:06:48;5.38;;;1.60;;
9801;SDS011;4940;50.900;4.672;2023-05-16T06:09:15;6.80;;;1.60;;
9801;SDS011;4940;50.900;4.672;2023-05-16T06:11:43;11.75;;;2.05;;
9801;SDS011;4940;50.900;4.672;2023-05-16T06:14:10;2.75;;;1.30;;
9801;SDS011;4940;50.900;4.672;2023-05-16T06:16:39;5.70;;;1.48;;
9801;SDS011;4940;50.900;4.672;2023-05-16T06:19:06;3.92;;;1.40;;
9801;SDS011;4940;50.900;4.672;2023-05-16T06:21:34;7.50;;;1.73;;
9801;SDS011;4940;50.900;4.672;2023-05-16T06:24:01;5.38;;;1.67;;
9801;SDS011;4940;50.900;4.672;2023-05-16T06:26:29;3.75;;;1.50;;
9801;SDS011;4940;50.900;4.672;2023-05-16T06:28:56;4.10;;;1.40;;
9801;SDS011;4940;50.900;4.672;2023-05-16T06:31:24;6.90;;;2.10;;
9801;SDS011;4940;50.900;4.672;2023-05-16T06:33:52;6.15;;;1.60;;
9801;SDS011;4940;50.900;4.672;2023-05-16T06:36:20;8.27;;;1.70;;
9801;SDS011;4940;50.900;4.672;2023-05-16T06:38:48;5.40;;;1.48;;
9801;SDS011;4940;50.900;4.672;2023-05-16T06:41:16;3.80;;;1.30;;
9801;SDS011;4940;50.900;4.672;2023-05-16T06:43:43;3.25;;;1.52;;
9801;SDS011;4940;50.900;4.672;2023-05-16T06:46:10;2.53;;;1.20;;
9801;SDS011;4940;50.900;4.672;2023-05-16T06:48:38;3.35;;;1.45;;
9801;SDS011;4940;50.900;4.672;2023-05-16T06:51:06;2.55;;;1.23;;
9801;SDS011;4940;50.900;4.672;2023-05-16T06:53:34;7.40;;;1.67;;
9801;SDS011;4940;50.900;4.672;2023-05-16T06:56:02;8.55;;;1.60;;
9801;SDS011;4940;50.900;4.672;2023-05-16T06:58:29;2.42;;;1.27;;
9801;SDS011;4940;50.900;4.672;2023-05-16T07:00:57;4.95;;;1.58;;
9801;SDS011;4940;50.900;4.672;2023-05-16T07:03:24;3.28;;;1.30;;
9801;SDS011;4940;50.900;4.672;2023-05-16T07:05:51;5.78;;;1.30;;
9801;SDS011;4940;50.900;4.672;2023-05-16T07:08:21;6.40;;;1.60;;
9801;SDS011;4940;50.900;4.672;2023-05-16T07:10:48;6.10;;;1.60;;
9801;SDS011;4940;50.900;4.672;2023-05-16T07:13:15;4.38;;;1.30;;
9801;SDS011;4940;50.900;4.672;2023-05-16T07:15:43;8.18;;;1.42;;
9801;SDS011;4940;50.900;4.672;2023-05-16T07:18:10;5.10;;;1.50;;
9801;SDS011;4940;50.900;4.672;2023-05-16T07:20:37;2.85;;;1.17;;
9801;SDS011;4940;50.900;4.672;2023-05-16T07:23:05;3.80;;;1.15;;
9801;SDS011;4940;50.900;4.672;2023-05-16T07:25:34;3.60;;;1.08;;
9801;SDS011;4940;50.900;4.672;2023-05-16T07:28:01;7.00;;;1.30;;
9801;SDS011;4940;50.900;4.672;2023-05-16T07:30:29;5.22;;;1.40;;
9801;SDS011;4940;50.900;4.672;2023-05-16T07:32:56;4.10;;;1.40;;
9801;SDS011;4940;50.900;4.672;2023-05-16T07:35:23;2.28;;;0.95;;
9801;SDS011;4940;50.900;4.672;2023-05-16T07:37:51;3.38;;;1.02;;
9801;SDS011;4940;50.900;4.672;2023-05-16T07:40:18;2.45;;;1.08;;
9801;SDS011;4940;50.900;4.672;2023-05-16T07:42:51;3.35;;;1.10;;
9801;SDS011;4940;50.900;4.672;2023-05-16T07:45:18;3.53;;;1.15;;
9801;SDS011;4940;50.900;4.672;2023-05-16T07:47:46;2.22;;;1.13;;
9801;SDS011;4940;50.900;4.672;2023-05-16T07:50:13;4.63;;;1.20;;
9801;SDS011;4940;50.900;4.672;2023-05-16T07:52:40;10.02;;;1.30;;
9801;SDS011;4940;50.900;4.672;2023-05-16T07:55:08;2.90;;;1.13;;
9801;SDS011;4940;50.900;4.672;2023-05-16T07:57:36;3.90;;;1.23;;
9801;SDS011;4940;50.900;4.672;2023-05-16T08:00:05;3.22;;;1.27;;
9801;SDS011;4940;50.900;4.672;2023-05-16T08:02:33;5.95;;;1.38;;
9801;SDS011;4940;50.900;4.672;2023-05-16T08:05:01;3.22;;;1.05;;
9801;SDS011;4940;50.900;4.672;2023-05-16T08:07:28;2.55;;;0.98;;
9801;SDS011;4940;50.900;4.672;2023-05-16T08:09:56;5.70;;;0.95;;
9801;SDS011;4940;50.900;4.672;2023-05-16T08:12:23;4.18;;;1.33;;
9801;SDS011;4940;50.900;4.672;2023-05-16T08:14:51;2.78;;;1.25;;
9801;SDS011;4940;50.900;4.672;2023-05-16T08:17:20;5.75;;;1.35;;
9801;SDS011;4940;50.900;4.672;2023-05-16T08:19:47;1.98;;;0.90;;
9801;SDS011;4940;50.900;4.672;2023-05-16T08:22:16;3.42;;;1.00;;
9801;SDS011;4940;50.900;4.672;2023-05-16T08:24:44;3.25;;;1.20;;
9801;SDS011;4940;50.900;4.672;2023-05-16T08:27:11;2.42;;;1.05;;
9801;SDS011;4940;50.900;4.672;2023-05-16T08:29:38;2.97;;;1.13;;
9801;SDS011;4940;50.900;4.672;2023-05-16T08:32:07;3.42;;;1.40;;
9801;SDS011;4940;50.900;4.672;2023-05-16T08:34:36;3.75;;;1.23;;
9801;SDS011;4940;50.900;4.672;2023-05-16T08:37:04;6.05;;;1.20;;
9801;SDS011;4940;50.900;4.672;2023-05-16T08:39:31;1.75;;;1.15;;
9801;SDS011;4940;50.900;4.672;2023-05-16T08:41:59;3.53;;;1.30;;
9801;SDS011;4940;50.900;4.672;2023-05-16T08:44:27;2.25;;;1.30;;
9801;SDS011;4940;50.900;4.672;2023-05-16T08:46:54;3.72;;;1.25;;
9801;SDS011;4940;50.900;4.672;2023-05-16T08:49:23;2.05;;;1.25;;
9801;SDS011;4940;50.900;4.672;2023-05-16T08:51:56;3.20;;;1.50;;
9801;SDS011;4940;50.900;4.672;2023-05-16T08:54:23;5.15;;;1.55;;
9801;SDS011;4940;50.900;4.672;2023-05-16T08:56:51;3.15;;;1.52;;
9801;SDS011;4940;50.900;4.672;2023-05-16T08:59:19;6.40;;;1.30;;
9801;SDS011;4940;50.900;4.672;2023-05-16T09:01:47;3.35;;;1.35;;
9801;SDS011;4940;50.900;4.672;2023-05-16T09:04:15;2.90;;;1.40;;
9801;SDS011;4940;50.900;4.672;2023-05-16T09:06:42;4.25;;;1.23;;
9801;SDS011;4940;50.900;4.672;2023-05-16T09:09:11;1.70;;;1.10;;
9801;SDS011;4940;50.900;4.672;2023-05-16T09:11:39;4.10;;;1.55;;
9801;SDS011;4940;50.900;4.672;2023-05-16T09:14:06;5.45;;;1.25;;
9801;SDS011;4940;50.900;4.672;2023-05-16T09:16:34;3.03;;;1.70;;
9801;SDS011;4940;50.900;4.672;2023-05-16T09:19:01;2.85;;;1.33;;
9801;SDS011;4940;50.900;4.672;2023-05-16T09:21:29;4.63;;;1.38;;
9801;SDS011;4940;50.900;4.672;2023-05-16T09:24:01;6.20;;;1.55;;
9801;SDS011;4940;50.900;4.672;2023-05-16T09:26:31;4.82;;;1.70;;
9801;SDS011;4940;50.900;4.672;2023-05-16T09:29:00;4.65;;;1.88;;
9801;SDS011;4940;50.900;4.672;2023-05-16T09:31:27;2.72;;;1.40;;
9801;SDS011;4940;50.900;4.672;2023-05-16T09:34:00;2.53;;;1.35;;
9801;SDS011;4940;50.900;4.672;2023-05-16T09:36:28;4.40;;;1.50;;
9801;SDS011;4940;50.900;4.672;2023-05-16T09:38:58;2.90;;;1.33;;
9801;SDS011;4940;50.900;4.672;2023-05-16T09:41:25;3.42;;;1.77;;
9801;SDS011;4940;50.900;4.672;2023-05-16T09:43:54;6.07;;;1.40;;
9801;SDS011;4940;50.900;4.672;2023-05-16T09:46:24;4.90;;;1.30;;
9801;SDS011;4940;50.900;4.672;2023-05-16T09:48:52;3.88;;;1.40;;
9801;SDS011;4940;50.900;4.672;2023-05-16T09:51:21;2.67;;;1.42;;
9801;SDS011;4940;50.900;4.672;2023-05-16T09:53:49;2.45;;;1.08;;
9801;SDS011;4940;50.900;4.672;2023-05-16T09:56:16;6.55;;;1.35;;
9801;SDS011;4940;50.900;4.672;2023-05-16T09:58:44;1.95;;;1.10;;
9801;SDS011;4940;50.900;4.672;2023-05-16T10:01:13;4.63;;;1.25;;
9801;SDS011;4940;50.900;4.672;2023-05-16T10:03:41;3.88;;;1.15;;
9801;SDS011;4940;50.900;4.672;2023-05-16T10:06:09;2.70;;;1.25;;
9801;SDS011;4940;50.900;4.672;2023-05-16T10:08:36;2.10;;;1.20;;
9801;SDS011;4940;50.900;4.672;2023-05-16T10:11:13;4.40;;;1.20;;
9801;SDS011;4940;50.900;4.672;2023-05-16T10:14:03;2.45;;;1.15;;
9801;SDS011;4940;50.900;4.672;2023-05-16T10:16:37;1.13;;;0.90;;
9801;SDS011;4940;50.900;4.672;2023-05-16T10:19:11;3.72;;;1.25;;
9801;SDS011;4940;50.900;4.672;2023-05-16T10:21:39;2.25;;;1.10;;
9801;SDS011;4940;50.900;4.672;2023-05-16T10:24:08;3.63;;;1.40;;
9801;SDS011;4940;50.900;4.672;2023-05-16T10:26:40;2.97;;;1.13;;
9801;SDS011;4940;50.900;4.672;2023-05-16T10:29:08;2.83;;;1.13;;
9801;SDS011;4940;50.900;4.672;2023-05-16T10:31:37;3.33;;;1.05;;
9801;SDS011;4940;50.900;4.672;2023-05-16T10:34:05;1.90;;;1.08;;
9801;SDS011;4940;50.900;4.672;2023-05-16T10:36:33;3.58;;;1.20;;
9801;SDS011;4940;50.900;4.672;2023-05-16T10:39:00;2.38;;;0.90;;
9801;SDS011;4940;50.900;4.672;2023-05-16T10:41:28;3.08;;;1.10;;
9801;SDS011;4940;50.900;4.672;2023-05-16T10:43:56;3.00;;;1.10;;
9801;SDS011;4940;50.900;4.672;2023-05-16T10:46:25;1.42;;;1.10;;
9801;SDS011;4940;50.900;4.672;2023-05-16T10:48:54;3.45;;;1.35;;
9801;SDS011;4940;50.900;4.672;2023-05-16T10:51:34;2.38;;;1.10;;
9801;SDS011;4940;50.900;4.672;2023-05-16T10:54:07;2.15;;;0.98;;
9801;SDS011;4940;50.900;4.672;2023-05-16T10:56:35;3.17;;;1.30;;
9801;SDS011;4940;50.900;4.672;2023-05-16T10:59:03;3.05;;;1.20;;
9801;SDS011;4940;50.900;4.672;2023-05-16T11:01:31;2.85;;;1.05;;
9801;SDS011;4940;50.900;4.672;2023-05-16T11:04:01;3.30;;;1.13;;
9801;SDS011;4940;50.900;4.672;2023-05-16T11:06:34;3.60;;;1.17;;
9801;SDS011;4940;50.900;4.672;2023-05-16T11:09:17;1.40;;;0.90;;
9801;SDS011;4940;50.900;4.672;2023-05-16T11:12:00;1.52;;;0.90;;
9801;SDS011;4940;50.900;4.672;2023-05-16T11:14:28;1.05;;;0.95;;
9801;SDS011;4940;50.900;4.672;2023-05-16T11:17:03;1.27;;;0.82;;
9801;SDS011;4940;50.900;4.672;2023-05-16T11:19:38;3.25;;;1.08;;
9801;SDS011;4940;50.900;4.672;2023-05-16T11:22:07;4.10;;;1.02;;
9801;SDS011;4940;50.900;4.672;2023-05-16T11:24:36;1.55;;;1.08;;
9801;SDS011;4940;50.900;4.672;2023-05-16T11:27:04;2.25;;;1.10;;
9801;SDS011;4940;50.900;4.672;2023-05-16T11:29:32;2.83;;;1.10;;
9801;SDS011;4940;50.900;4.672;2023-05-16T11:32:00;3.00;;;1.10;;
9801;SDS011;4940;50.900;4.672;2023-05-16T11:34:29;1.58;;;0.85;;
9801;SDS011;4940;50.900;4.672;2023-05-16T11:36:57;3.00;;;1.20;;
9801;SDS011;4940;50.900;4.672;2023-05-16T11:39:26;2.80;;;1.10;;
9801;SDS011;4940;50.900;4.672;2023-05-16T11:41:54;3.33;;;1.17;;
9801;SDS011;4940;50.900;4.672;2023-05-16T11:44:22;3.33;;;1.23;;
9801;SDS011;4940;50.900;4.672;2023-05-16T11:46:49;3.58;;;1.30;;
9801;SDS011;4940;50.900;4.672;2023-05-16T11:49:17;1.50;;;0.90;;
9801;SDS011;4940;50.900;4.672;2023-05-16T11:51:44;4.35;;;1.10;;
9801;SDS011;4940;50.900;4.672;2023-05-16T11:54:13;1.85;;;1.08;;
9801;SDS011;4940;50.900;4.672;2023-05-16T11:56:40;3.17;;;1.27;;
9801;SDS011;4940;50.900;4.672;2023-05-16T11:59:08;4.53;;;1.38;;
9801;SDS011;4940;50.900;4.672;2023-05-16T12:01:37;4.80;;;1.20;;
9801;SDS011;4940;50.900;4.672;2023-05-16T12:04:07;2.03;;;1.10;;
9801;SDS011;4940;50.900;4.672;2023-05-16T12:06:36;1.60;;;0.93;;
9801;SDS011;4940;50.900;4.672;2023-05-16T12:09:03;1.80;;;1.05;;
9801;SDS011;4940;50.900;4.672;2023-05-16T12:11:37;3.75;;;1.13;;
9801;SDS011;4940;50.900;4.672;2023-05-16T12:14:04;4.22;;;1.23;;
9801;SDS011;4940;50.900;4.672;2023-05-16T12:16:33;2.10;;;1.08;;
9801;SDS011;4940;50.900;4.672;2023-05-16T12:19:01;3.53;;;1.33;;
9801;SDS011;4940;50.900;4.672;2023-05-16T12:21:29;3.38;;;1.48;;
9801;SDS011;4940;50.900;4.672;2023-05-16T12:23:56;3.95;;;1.05;;
9801;SDS011;4940;50.900;4.672;2023-05-16T12:26:24;3.47;;;1.20;;
9801;SDS011;4940;50.900;4.672;2023-05-16T12:28:57;1.73;;;1.00;;
9801;SDS011;4940;50.900;4.672;2023-05-16T12:31:25;3.35;;;1.02;;
9801;SDS011;4940;50.900;4.672;2023-05-16T12:33:52;1.65;;;1.00;;
9801;SDS011;4940;50.900;4.672;2023-05-16T12:36:20;2.08;;;1.02;;
9801;SDS011;4940;50.900;4.672;2023-05-16T12:38:48;3.60;;;1.00;;
9801;SDS011;4940;50.900;4.672;2023-05-16T12:41:16;2.35;;;1.00;;
9801;SDS011;4940;50.900;4.672;2023-05-16T12:43:44;3.70;;;1.27;;
9801;SDS011;4940;50.900;4.672;2023-05-16T12:46:13;1.75;;;1.00;;
9801;SDS011;4940;50.900;4.672;2023-05-16T12:48:41;1.73;;;1.00;;
9801;SDS011;4940;50.900;4.672;2023-05-16T12:51:11;3.78;;;1.20;;
9801;SDS011;4940;50.900;4.672;2023-05-16T12:53:42;2.00;;;0.90;;
9801;SDS011;4940;50.900;4.672;2023-05-16T12:56:11;2.50;;;1.00;;
9801;SDS011;4940;50.900;4.672;2023-05-16T12:58:39;3.60;;;1.30;;
9801;SDS011;4940;50.900;4.672;2023-05-16T13:01:07;4.20;;;1.05;;
9801;SDS011;4940;50.900;4.672;2023-05-16T13:03:37;4.10;;;1.15;;
9801;SDS011;4940;50.900;4.672;2023-05-16T13:06:04;3.90;;;1.13;;
9801;SDS011;4940;50.900;4.672;2023-05-16T13:08:31;1.67;;;0.80;;
9801;SDS011;4940;50.900;4.672;2023-05-16T13:10:59;3.33;;;1.00;;
9801;SDS011;4940;50.900;4.672;2023-05-16T13:13:26;1.70;;;1.10;;
9801;SDS011;4940;50.900;4.672;2023-05-16T13:15:54;1.35;;;0.98;;
9801;SDS011;4940;50.900;4.672;2023-05-16T13:18:22;3.25;;;0.82;;
9801;SDS011;4940;50.900;4.672;2023-05-16T13:20:51;1.83;;;0.90;;
9801;SDS011;4940;50.900;4.672;2023-05-16T13:23:18;2.67;;;1.10;;
9801;SDS011;4940;50.900;4.672;2023-05-16T13:25:46;0.95;;;0.65;;
9801;SDS011;4940;50.900;4.672;2023-05-16T13:28:13;1.33;;;0.70;;
9801;SDS011;4940;50.900;4.672;2023-05-16T13:30:41;2.70;;;0.98;;
9801;SDS011;4940;50.900;4.672;2023-05-16T13:33:08;3.75;;;1.27;;
9801;SDS011;4940;50.900;4.672;2023-05-16T13:35:36;1.90;;;1.02;;
9801;SDS011;4940;50.900;4.672;2023-05-16T13:38:04;3.22;;;1.00;;
9801;SDS011;4940;50.900;4.672;2023-05-16T13:40:32;2.03;;;0.80;;
9801;SDS011;4940;50.900;4.672;2023-05-16T13:43:00;3.40;;;1.20;;
9801;SDS011;4940;50.900;4.672;2023-05-16T13:45:28;3.03;;;1.00;;
9801;SDS011;4940;50.900;4.672;2023-05-16T13:47:56;2.38;;;1.00;;
9801;SDS011;4940;50.900;4.672;2023-05-16T13:50:23;4.90;;;1.02;;
9801;SDS011;4940;50.900;4.672;2023-05-16T13:52:51;3.53;;;1.20;;
9801;SDS011;4940;50.900;4.672;2023-05-16T13:55:19;3.65;;;1.27;;
9801;SDS011;4940;50.900;4.672;2023-05-16T13:57:48;2.17;;;0.90;;
9801;SDS011;4940;50.900;4.672;2023-05-16T14:00:15;3.60;;;0.93;;
9801;SDS011;4940;50.900;4.672;2023-05-16T14:02:43;1.73;;;1.00;;
9801;SDS011;4940;50.900;4.672;2023-05-16T14:05:11;2.95;;;1.00;;
9801;SDS011;4940;50.900;4.672;2023-05-16T14:07:38;2.65;;;1.00;;
9801;SDS011;4940;50.900;4.672;2023-05-16T14:10:06;2.75;;;1.10;;
9801;SDS011;4940;50.900;4.672;2023-05-16T14:12:35;3.65;;;0.98;;
9801;SDS011;4940;50.900;4.672;2023-05-16T14:15:04;1.73;;;0.90;;
9801;SDS011;4940;50.900;4.672;2023-05-16T14:17:33;5.22;;;1.30;;
9801;SDS011;4940;50.900;4.672;2023-05-16T14:20:00;3.75;;;1.10;;
9801;SDS011;4940;50.900;4.672;2023-05-16T14:22:28;3.05;;;1.25;;
9801;SDS011;4940;50.900;4.672;2023-05-16T14:24:56;3.67;;;1.02;;
9801;SDS011;4940;50.900;4.672;2023-05-16T14:27:24;4.00;;;1.00;;
9801;SDS011;4940;50.900;4.672;2023-05-16T14:29:53;4.47;;;1.27;;
9801;SDS011;4940;50.900;4.672;2023-05-16T14:32:20;1.90;;;1.10;;
9801;SDS011;4940;50.900;4.672;2023-05-16T14:34:48;3.95;;;1.05;;
9801;SDS011;4940;50.900;4.672;2023-05-16T14:37:15;1.98;;;0.85;;
9801;SDS011;4940;50.900;4.672;2023-05-16T14:39:46;3.90;;;1.35;;
9801;SDS011;4940;50.900;4.672;2023-05-16T14:42:15;3.70;;;1.00;;
9801;SDS011;4940;50.900;4.672;2023-05-16T14:44:43;1.75;;;0.77;;
9801;SDS011;4940;50.900;4.672;2023-05-16T14:47:12;2.65;;;1.15;;
9801;SDS011;4940;50.900;4.672;2023-05-16T14:49:39;2.72;;;1.00;;
9801;SDS011;4940;50.900;4.672;2023-05-16T14:52:07;1.45;;;0.90;;
9801;SDS011;4940;50.900;4.672;2023-05-16T14:54:34;1.80;;;1.02;;
9801;SDS011;4940;50.900;4.672;2023-05-16T14:57:02;5.10;;;1.25;;
9801;SDS011;4940;50.900;4.672;2023-05-16T14:59:30;3.13;;;1.00;;
9801;SDS011;4940;50.900;4.672;2023-05-16T15:01:57;4.40;;;1.25;;
9801;SDS011;4940;50.900;4.672;2023-05-16T15:04:27;1.88;;;0.85;;
9801;SDS011;4940;50.900;4.672;2023-05-16T15:06:54;2.45;;;0.80;;
9801;SDS011;4940;50.900;4.672;2023-05-16T15:09:22;2.85;;;0.88;;
9801;SDS011;4940;50.900;4.672;2023-05-16T15:11:49;1.45;;;0.95;;
9801;SDS011;4940;50.900;4.672;2023-05-16T15:14:16;2.30;;;0.80;;